DNKN/KAN METAR and TAF weather

Enter ICAO airport designator
Station Type Date Time Source
DNKN METAR 2020/09/26 08:00 UTC NOAA

DNKN 260800Z 22009KT CAVOK 24/20 Q1016 NOSIG


Station Type Date Time Source
DNKN Decoded METAR 2020/09/26 08:00 UTC NOAA

Kano, Nigeria (DNKN) 12-03N 008-32E 481M
Sep 26, 2020 - 04:00 AM EDT / 2020.09.26 0800 UTC
Wind: from the SW (220 degrees) at 10 MPH (9 KT):0
Visibility: greater than 7 mile(s):0
Temperature: 75 F (24 C)
Dew Point: 68 F (20 C)
Relative Humidity: 78%
Pressure (altimeter): 30.00 in. Hg (1016 hPa)
ob: DNKN 260800Z 22009KT CAVOK 24/20 Q1016 NOSIG
cycle: 8

Station Type Date Time Source
DNKN TAF 2020/09/23 12:21 UTC NOAA

TAF DNKN 231100Z 2312/2418 29008KT 9999 FEW012
TEMPO 2314/2318 TS BKN012 FEW020CB PROB30
TEMPO 2319/2324 5000 TSRA BKN010 FEW019CB

Example: see airport list